sensor_id;sensor_type;location;lat;lon;timestamp;P1;durP1;ratioP1;P2;durP2;ratioP2
44558;SDS011;30270;40.238;18.256;2022-07-21T00:02:20;3.63;;;2.65;;
44558;SDS011;30270;40.238;18.256;2022-07-21T00:04:49;4.20;;;2.53;;
44558;SDS011;30270;40.238;18.256;2022-07-21T00:07:17;4.30;;;2.70;;
44558;SDS011;30270;40.238;18.256;2022-07-21T00:09:45;5.85;;;2.42;;
44558;SDS011;30270;40.238;18.256;2022-07-21T00:12:13;7.20;;;2.90;;
44558;SDS011;30270;40.238;18.256;2022-07-21T00:14:40;6.63;;;2.58;;
44558;SDS011;30270;40.238;18.256;2022-07-21T00:17:08;4.47;;;3.08;;
44558;SDS011;30270;40.238;18.256;2022-07-21T00:19:36;4.43;;;3.25;;
44558;SDS011;30270;40.238;18.256;2022-07-21T00:22:03;5.05;;;2.42;;
44558;SDS011;30270;40.238;18.256;2022-07-21T00:24:30;4.93;;;2.75;;
44558;SDS011;30270;40.238;18.256;2022-07-21T00:26:58;4.13;;;2.55;;
44558;SDS011;30270;40.238;18.256;2022-07-21T00:29:26;3.72;;;2.40;;
44558;SDS011;30270;40.238;18.256;2022-07-21T00:31:53;5.63;;;2.40;;
44558;SDS011;30270;40.238;18.256;2022-07-21T00:34:21;4.60;;;3.10;;
44558;SDS011;30270;40.238;18.256;2022-07-21T00:36:48;4.30;;;2.80;;
44558;SDS011;30270;40.238;18.256;2022-07-21T00:39:16;8.07;;;2.80;;
44558;SDS011;30270;40.238;18.256;2022-07-21T00:41:43;4.45;;;2.47;;
44558;SDS011;30270;40.238;18.256;2022-07-21T00:44:24;4.10;;;2.88;;
44558;SDS011;30270;40.238;18.256;2022-07-21T00:46:53;9.25;;;3.00;;
44558;SDS011;30270;40.238;18.256;2022-07-21T00:49:21;6.68;;;2.72;;
44558;SDS011;30270;40.238;18.256;2022-07-21T00:51:49;4.97;;;2.58;;
44558;SDS011;30270;40.238;18.256;2022-07-21T00:54:17;4.57;;;2.78;;
44558;SDS011;30270;40.238;18.256;2022-07-21T00:56:46;6.35;;;3.03;;
44558;SDS011;30270;40.238;18.256;2022-07-21T00:59:14;6.13;;;3.28;;
44558;SDS011;30270;40.238;18.256;2022-07-21T01:01:42;6.28;;;3.70;;
44558;SDS011;30270;40.238;18.256;2022-07-21T01:04:09;4.65;;;3.17;;
44558;SDS011;30270;40.238;18.256;2022-07-21T01:06:37;7.25;;;3.55;;
44558;SDS011;30270;40.238;18.256;2022-07-21T01:09:05;5.10;;;3.13;;
44558;SDS011;30270;40.238;18.256;2022-07-21T01:11:36;4.28;;;2.97;;
44558;SDS011;30270;40.238;18.256;2022-07-21T01:14:05;5.13;;;2.90;;
44558;SDS011;30270;40.238;18.256;2022-07-21T01:16:33;4.22;;;3.53;;
44558;SDS011;30270;40.238;18.256;2022-07-21T01:19:00;6.68;;;2.78;;
44558;SDS011;30270;40.238;18.256;2022-07-21T01:23:59;4.78;;;3.10;;
44558;SDS011;30270;40.238;18.256;2022-07-21T01:26:28;6.70;;;3.25;;
44558;SDS011;30270;40.238;18.256;2022-07-21T01:28:57;5.72;;;2.78;;
44558;SDS011;30270;40.238;18.256;2022-07-21T01:31:24;5.03;;;3.85;;
44558;SDS011;30270;40.238;18.256;2022-07-21T01:33:52;4.43;;;3.15;;
44558;SDS011;30270;40.238;18.256;2022-07-21T01:36:19;8.70;;;4.15;;
44558;SDS011;30270;40.238;18.256;2022-07-21T01:38:47;5.93;;;3.63;;
44558;SDS011;30270;40.238;18.256;2022-07-21T01:41:33;7.57;;;4.75;;
44558;SDS011;30270;40.238;18.256;2022-07-21T01:44:05;4.32;;;3.72;;
44558;SDS011;30270;40.238;18.256;2022-07-21T01:46:36;6.78;;;4.28;;
44558;SDS011;30270;40.238;18.256;2022-07-21T01:49:05;6.78;;;3.75;;
44558;SDS011;30270;40.238;18.256;2022-07-21T01:51:33;9.23;;;4.47;;
44558;SDS011;30270;40.238;18.256;2022-07-21T01:54:01;6.20;;;4.05;;
44558;SDS011;30270;40.238;18.256;2022-07-21T01:56:29;6.25;;;4.38;;
44558;SDS011;30270;40.238;18.256;2022-07-21T01:58:57;7.10;;;4.10;;
44558;SDS011;30270;40.238;18.256;2022-07-21T02:01:25;7.10;;;4.22;;
44558;SDS011;30270;40.238;18.256;2022-07-21T02:03:54;5.53;;;4.05;;
44558;SDS011;30270;40.238;18.256;2022-07-21T02:06:24;9.00;;;4.25;;
44558;SDS011;30270;40.238;18.256;2022-07-21T02:08:52;4.60;;;3.00;;
44558;SDS011;30270;40.238;18.256;2022-07-21T02:11:19;5.68;;;3.00;;
44558;SDS011;30270;40.238;18.256;2022-07-21T02:13:48;5.82;;;3.53;;
44558;SDS011;30270;40.238;18.256;2022-07-21T02:16:15;4.68;;;2.97;;
44558;SDS011;30270;40.238;18.256;2022-07-21T02:18:43;5.43;;;3.03;;
44558;SDS011;30270;40.238;18.256;2022-07-21T02:21:11;8.30;;;3.63;;
44558;SDS011;30270;40.238;18.256;2022-07-21T02:23:39;4.60;;;3.58;;
44558;SDS011;30270;40.238;18.256;2022-07-21T02:26:07;5.68;;;2.92;;
44558;SDS011;30270;40.238;18.256;2022-07-21T02:28:35;5.57;;;3.22;;
44558;SDS011;30270;40.238;18.256;2022-07-21T02:31:02;8.23;;;3.53;;
44558;SDS011;30270;40.238;18.256;2022-07-21T02:33:30;5.30;;;3.00;;
44558;SDS011;30270;40.238;18.256;2022-07-21T02:35:58;4.88;;;3.40;;
44558;SDS011;30270;40.238;18.256;2022-07-21T02:38:26;4.35;;;2.90;;
44558;SDS011;30270;40.238;18.256;2022-07-21T02:40:53;5.13;;;3.15;;
44558;SDS011;30270;40.238;18.256;2022-07-21T02:43:23;6.35;;;3.22;;
44558;SDS011;30270;40.238;18.256;2022-07-21T02:45:50;6.20;;;2.80;;
44558;SDS011;30270;40.238;18.256;2022-07-21T02:48:18;5.80;;;3.65;;
44558;SDS011;30270;40.238;18.256;2022-07-21T02:50:46;3.47;;;2.83;;
44558;SDS011;30270;40.238;18.256;2022-07-21T02:53:17;5.13;;;3.25;;
44558;SDS011;30270;40.238;18.256;2022-07-21T02:55:47;6.32;;;3.67;;
44558;SDS011;30270;40.238;18.256;2022-07-21T02:58:20;9.07;;;3.45;;
44558;SDS011;30270;40.238;18.256;2022-07-21T03:03:16;4.78;;;3.00;;
44558;SDS011;30270;40.238;18.256;2022-07-21T03:05:45;4.53;;;3.03;;
44558;SDS011;30270;40.238;18.256;2022-07-21T03:08:13;4.32;;;2.42;;
44558;SDS011;30270;40.238;18.256;2022-07-21T03:10:41;5.95;;;3.83;;
44558;SDS011;30270;40.238;18.256;2022-07-21T03:13:09;3.45;;;2.45;;
44558;SDS011;30270;40.238;18.256;2022-07-21T03:15:37;5.07;;;2.80;;
44558;SDS011;30270;40.238;18.256;2022-07-21T03:18:05;5.63;;;2.90;;
44558;SDS011;30270;40.238;18.256;2022-07-21T03:20:34;5.97;;;3.00;;
44558;SDS011;30270;40.238;18.256;2022-07-21T03:23:03;3.50;;;2.58;;
44558;SDS011;30270;40.238;18.256;2022-07-21T03:25:31;7.32;;;3.22;;
44558;SDS011;30270;40.238;18.256;2022-07-21T03:27:59;4.03;;;3.17;;
44558;SDS011;30270;40.238;18.256;2022-07-21T03:30:27;5.75;;;3.50;;
44558;SDS011;30270;40.238;18.256;2022-07-21T03:32:55;4.38;;;3.05;;
44558;SDS011;30270;40.238;18.256;2022-07-21T03:35:23;4.55;;;3.03;;
44558;SDS011;30270;40.238;18.256;2022-07-21T03:37:52;4.80;;;3.05;;
44558;SDS011;30270;40.238;18.256;2022-07-21T03:40:21;19.85;;;3.70;;
44558;SDS011;30270;40.238;18.256;2022-07-21T03:42:51;6.47;;;3.80;;
44558;SDS011;30270;40.238;18.256;2022-07-21T03:45:24;6.22;;;2.50;;
44558;SDS011;30270;40.238;18.256;2022-07-21T03:47:52;5.63;;;2.60;;
44558;SDS011;30270;40.238;18.256;2022-07-21T03:50:20;4.60;;;2.78;;
44558;SDS011;30270;40.238;18.256;2022-07-21T03:52:47;3.78;;;2.47;;
44558;SDS011;30270;40.238;18.256;2022-07-21T03:55:15;3.95;;;2.67;;
44558;SDS011;30270;40.238;18.256;2022-07-21T03:57:46;4.35;;;2.72;;
44558;SDS011;30270;40.238;18.256;2022-07-21T04:00:17;4.60;;;2.60;;
44558;SDS011;30270;40.238;18.256;2022-07-21T04:02:49;3.95;;;2.97;;
44558;SDS011;30270;40.238;18.256;2022-07-21T04:05:17;3.97;;;2.78;;
44558;SDS011;30270;40.238;18.256;2022-07-21T04:07:47;4.25;;;2.70;;
44558;SDS011;30270;40.238;18.256;2022-07-21T04:10:17;5.68;;;3.20;;
44558;SDS011;30270;40.238;18.256;2022-07-21T04:12:50;4.82;;;2.47;;
44558;SDS011;30270;40.238;18.256;2022-07-21T04:15:18;7.60;;;2.83;;
44558;SDS011;30270;40.238;18.256;2022-07-21T04:17:47;4.45;;;2.55;;
44558;SDS011;30270;40.238;18.256;2022-07-21T04:20:16;3.58;;;2.33;;
44558;SDS011;30270;40.238;18.256;2022-07-21T04:22:44;5.07;;;2.55;;
44558;SDS011;30270;40.238;18.256;2022-07-21T04:25:13;5.35;;;2.60;;
44558;SDS011;30270;40.238;18.256;2022-07-21T04:27:43;4.55;;;2.30;;
44558;SDS011;30270;40.238;18.256;2022-07-21T04:30:12;3.78;;;2.42;;
44558;SDS011;30270;40.238;18.256;2022-07-21T04:32:41;4.03;;;2.85;;
44558;SDS011;30270;40.238;18.256;2022-07-21T04:35:10;4.18;;;2.53;;
44558;SDS011;30270;40.238;18.256;2022-07-21T04:37:38;4.85;;;2.55;;
44558;SDS011;30270;40.238;18.256;2022-07-21T04:40:07;4.05;;;2.70;;
44558;SDS011;30270;40.238;18.256;2022-07-21T04:42:36;7.53;;;3.03;;
44558;SDS011;30270;40.238;18.256;2022-07-21T04:45:04;12.23;;;3.15;;
44558;SDS011;30270;40.238;18.256;2022-07-21T04:47:41;3.80;;;3.03;;
44558;SDS011;30270;40.238;18.256;2022-07-21T04:50:20;5.10;;;2.78;;
44558;SDS011;30270;40.238;18.256;2022-07-21T04:52:50;7.78;;;2.75;;
44558;SDS011;30270;40.238;18.256;2022-07-21T04:55:18;7.28;;;4.07;;
44558;SDS011;30270;40.238;18.256;2022-07-21T04:57:48;5.13;;;2.83;;
44558;SDS011;30270;40.238;18.256;2022-07-21T05:00:17;7.55;;;2.65;;
44558;SDS011;30270;40.238;18.256;2022-07-21T05:02:48;4.88;;;2.78;;
44558;SDS011;30270;40.238;18.256;2022-07-21T05:05:16;4.03;;;2.53;;
44558;SDS011;30270;40.238;18.256;2022-07-21T05:07:44;8.60;;;2.55;;
44558;SDS011;30270;40.238;18.256;2022-07-21T05:10:13;6.30;;;2.72;;
44558;SDS011;30270;40.238;18.256;2022-07-21T05:12:42;3.50;;;2.45;;
44558;SDS011;30270;40.238;18.256;2022-07-21T05:15:09;3.08;;;2.60;;
44558;SDS011;30270;40.238;18.256;2022-07-21T05:17:39;6.60;;;2.75;;
44558;SDS011;30270;40.238;18.256;2022-07-21T05:20:07;5.45;;;3.13;;
44558;SDS011;30270;40.238;18.256;2022-07-21T05:22:36;5.97;;;3.22;;
44558;SDS011;30270;40.238;18.256;2022-07-21T05:25:04;6.72;;;2.90;;
44558;SDS011;30270;40.238;18.256;2022-07-21T05:27:33;5.57;;;3.20;;
44558;SDS011;30270;40.238;18.256;2022-07-21T05:30:01;3.70;;;2.92;;
44558;SDS011;30270;40.238;18.256;2022-07-21T05:32:31;3.65;;;2.95;;
44558;SDS011;30270;40.238;18.256;2022-07-21T05:34:59;6.03;;;3.20;;
44558;SDS011;30270;40.238;18.256;2022-07-21T05:37:26;5.70;;;2.80;;
44558;SDS011;30270;40.238;18.256;2022-07-21T05:39:54;4.55;;;3.28;;
44558;SDS011;30270;40.238;18.256;2022-07-21T05:42:22;7.63;;;3.63;;
44558;SDS011;30270;40.238;18.256;2022-07-21T05:44:49;5.28;;;3.35;;
44558;SDS011;30270;40.238;18.256;2022-07-21T05:47:17;3.95;;;2.70;;
44558;SDS011;30270;40.238;18.256;2022-07-21T05:49:45;6.05;;;2.97;;
44558;SDS011;30270;40.238;18.256;2022-07-21T05:52:12;6.32;;;2.95;;
44558;SDS011;30270;40.238;18.256;2022-07-21T05:54:40;6.57;;;2.90;;
44558;SDS011;30270;40.238;18.256;2022-07-21T05:57:08;4.80;;;3.33;;
44558;SDS011;30270;40.238;18.256;2022-07-21T05:59:36;5.72;;;2.78;;
44558;SDS011;30270;40.238;18.256;2022-07-21T06:02:05;5.78;;;2.83;;
44558;SDS011;30270;40.238;18.256;2022-07-21T06:04:34;7.55;;;3.45;;
44558;SDS011;30270;40.238;18.256;2022-07-21T06:07:02;4.05;;;2.72;;
44558;SDS011;30270;40.238;18.256;2022-07-21T06:09:30;5.40;;;3.00;;
44558;SDS011;30270;40.238;18.256;2022-07-21T06:11:58;6.50;;;2.83;;
44558;SDS011;30270;40.238;18.256;2022-07-21T06:14:26;3.85;;;2.88;;
44558;SDS011;30270;40.238;18.256;2022-07-21T06:16:54;6.38;;;3.53;;
44558;SDS011;30270;40.238;18.256;2022-07-21T06:19:21;4.35;;;2.75;;
44558;SDS011;30270;40.238;18.256;2022-07-21T06:21:51;5.43;;;3.33;;
44558;SDS011;30270;40.238;18.256;2022-07-21T06:24:22;3.58;;;2.63;;
44558;SDS011;30270;40.238;18.256;2022-07-21T06:26:49;5.32;;;2.88;;
44558;SDS011;30270;40.238;18.256;2022-07-21T06:29:17;5.35;;;3.03;;
44558;SDS011;30270;40.238;18.256;2022-07-21T06:31:45;6.32;;;2.85;;
44558;SDS011;30270;40.238;18.256;2022-07-21T06:34:12;7.65;;;3.05;;
44558;SDS011;30270;40.238;18.256;2022-07-21T06:36:40;4.72;;;2.90;;
44558;SDS011;30270;40.238;18.256;2022-07-21T06:39:08;5.25;;;3.63;;
44558;SDS011;30270;40.238;18.256;2022-07-21T06:41:39;5.10;;;3.70;;
44558;SDS011;30270;40.238;18.256;2022-07-21T06:44:12;6.40;;;3.70;;
44558;SDS011;30270;40.238;18.256;2022-07-21T06:46:39;7.32;;;5.80;;
44558;SDS011;30270;40.238;18.256;2022-07-21T06:49:07;5.28;;;4.38;;
44558;SDS011;30270;40.238;18.256;2022-07-21T06:51:35;6.40;;;5.05;;
44558;SDS011;30270;40.238;18.256;2022-07-21T06:54:03;6.38;;;4.75;;
44558;SDS011;30270;40.238;18.256;2022-07-21T06:56:31;5.55;;;4.30;;
44558;SDS011;30270;40.238;18.256;2022-07-21T06:59:00;6.82;;;4.00;;
44558;SDS011;30270;40.238;18.256;2022-07-21T07:01:28;5.97;;;3.97;;
44558;SDS011;30270;40.238;18.256;2022-07-21T07:03:55;6.07;;;4.53;;
44558;SDS011;30270;40.238;18.256;2022-07-21T07:06:23;6.80;;;4.47;;
44558;SDS011;30270;40.238;18.256;2022-07-21T07:08:51;3.90;;;3.20;;
44558;SDS011;30270;40.238;18.256;2022-07-21T07:11:18;4.70;;;3.33;;
44558;SDS011;30270;40.238;18.256;2022-07-21T07:13:46;5.93;;;3.33;;
44558;SDS011;30270;40.238;18.256;2022-07-21T07:16:22;5.18;;;3.55;;
44558;SDS011;30270;40.238;18.256;2022-07-21T07:18:50;4.72;;;3.22;;
44558;SDS011;30270;40.238;18.256;2022-07-21T07:21:18;5.35;;;3.08;;
44558;SDS011;30270;40.238;18.256;2022-07-21T07:23:45;3.95;;;3.13;;
44558;SDS011;30270;40.238;18.256;2022-07-21T07:26:13;5.95;;;2.50;;
44558;SDS011;30270;40.238;18.256;2022-07-21T07:28:42;3.90;;;3.15;;
44558;SDS011;30270;40.238;18.256;2022-07-21T07:31:09;6.22;;;3.28;;
44558;SDS011;30270;40.238;18.256;2022-07-21T07:33:37;12.90;;;3.90;;
44558;SDS011;30270;40.238;18.256;2022-07-21T07:36:05;12.77;;;3.90;;
44558;SDS011;30270;40.238;18.256;2022-07-21T07:38:38;7.22;;;3.17;;
44558;SDS011;30270;40.238;18.256;2022-07-21T07:41:07;7.70;;;3.15;;
44558;SDS011;30270;40.238;18.256;2022-07-21T07:43:34;7.20;;;3.15;;
44558;SDS011;30270;40.238;18.256;2022-07-21T07:46:02;7.30;;;2.95;;
44558;SDS011;30270;40.238;18.256;2022-07-21T07:48:31;6.97;;;2.90;;
44558;SDS011;30270;40.238;18.256;2022-07-21T07:51:01;3.88;;;2.63;;
44558;SDS011;30270;40.238;18.256;2022-07-21T07:53:28;6.18;;;3.30;;
44558;SDS011;30270;40.238;18.256;2022-07-21T07:55:56;5.97;;;3.03;;
44558;SDS011;30270;40.238;18.256;2022-07-21T07:58:24;4.18;;;2.95;;
44558;SDS011;30270;40.238;18.256;2022-07-21T08:00:52;6.05;;;2.80;;
44558;SDS011;30270;40.238;18.256;2022-07-21T08:03:21;5.00;;;2.40;;
44558;SDS011;30270;40.238;18.256;2022-07-21T08:05:51;6.45;;;2.75;;
44558;SDS011;30270;40.238;18.256;2022-07-21T08:08:20;5.38;;;2.42;;
44558;SDS011;30270;40.238;18.256;2022-07-21T08:10:48;4.57;;;2.55;;
44558;SDS011;30270;40.238;18.256;2022-07-21T08:13:16;3.78;;;2.83;;
44558;SDS011;30270;40.238;18.256;2022-07-21T08:15:45;3.80;;;3.08;;
44558;SDS011;30270;40.238;18.256;2022-07-21T08:18:14;4.28;;;3.20;;
44558;SDS011;30270;40.238;18.256;2022-07-21T08:20:44;5.22;;;3.10;;
44558;SDS011;30270;40.238;18.256;2022-07-21T08:23:13;3.38;;;2.60;;
44558;SDS011;30270;40.238;18.256;2022-07-21T08:25:42;4.20;;;2.83;;
44558;SDS011;30270;40.238;18.256;2022-07-21T08:28:10;5.90;;;2.72;;
44558;SDS011;30270;40.238;18.256;2022-07-21T08:30:38;5.90;;;3.13;;
44558;SDS011;30270;40.238;18.256;2022-07-21T08:33:06;5.72;;;2.90;;
44558;SDS011;30270;40.238;18.256;2022-07-21T08:35:34;3.35;;;2.30;;
44558;SDS011;30270;40.238;18.256;2022-07-21T08:38:05;3.65;;;2.30;;
44558;SDS011;30270;40.238;18.256;2022-07-21T08:40:38;3.30;;;2.72;;
44558;SDS011;30270;40.238;18.256;2022-07-21T08:43:08;4.50;;;2.72;;
44558;SDS011;30270;40.238;18.256;2022-07-21T08:45:37;5.22;;;3.08;;
44558;SDS011;30270;40.238;18.256;2022-07-21T08:48:05;5.93;;;3.53;;
44558;SDS011;30270;40.238;18.256;2022-07-21T08:50:35;5.22;;;2.85;;
44558;SDS011;30270;40.238;18.256;2022-07-21T08:53:04;5.50;;;2.63;;
44558;SDS011;30270;40.238;18.256;2022-07-21T08:55:37;4.40;;;2.50;;
44558;SDS011;30270;40.238;18.256;2022-07-21T08:58:08;6.75;;;2.65;;
44558;SDS011;30270;40.238;18.256;2022-07-21T09:00:37;4.80;;;2.90;;
44558;SDS011;30270;40.238;18.256;2022-07-21T09:03:20;3.42;;;2.55;;
44558;SDS011;30270;40.238;18.256;2022-07-21T09:08:31;4.22;;;2.88;;
44558;SDS011;30270;40.238;18.256;2022-07-21T09:13:46;6.18;;;2.97;;
44558;SDS011;30270;40.238;18.256;2022-07-21T09:19:06;4.68;;;2.78;;
44558;SDS011;30270;40.238;18.256;2022-07-21T09:21:42;2.97;;;2.55;;
44558;SDS011;30270;40.238;18.256;2022-07-21T09:29:43;5.07;;;2.40;;
44558;SDS011;30270;40.238;18.256;2022-07-21T09:37:28;4.72;;;2.80;;
44558;SDS011;30270;40.238;18.256;2022-07-21T09:39:57;3.83;;;2.42;;
44558;SDS011;30270;40.238;18.256;2022-07-21T09:42:28;3.88;;;2.88;;
44558;SDS011;30270;40.238;18.256;2022-07-21T09:45:04;3.40;;;2.20;;
44558;SDS011;30270;40.238;18.256;2022-07-21T09:47:35;5.13;;;2.38;;
44558;SDS011;30270;40.238;18.256;2022-07-21T09:50:10;3.85;;;2.38;;
44558;SDS011;30270;40.238;18.256;2022-07-21T09:52:55;8.75;;;2.28;;
44558;SDS011;30270;40.238;18.256;2022-07-21T09:55:29;3.13;;;2.03;;
44558;SDS011;30270;40.238;18.256;2022-07-21T09:57:58;2.53;;;2.03;;
44558;SDS011;30270;40.238;18.256;2022-07-21T10:00:26;5.40;;;2.67;;
44558;SDS011;30270;40.238;18.256;2022-07-21T10:02:54;3.78;;;2.03;;
44558;SDS011;30270;40.238;18.256;2022-07-21T10:05:24;5.20;;;1.92;;
44558;SDS011;30270;40.238;18.256;2022-07-21T10:07:56;3.90;;;2.28;;
44558;SDS011;30270;40.238;18.256;2022-07-21T10:10:28;4.13;;;2.15;;
44558;SDS011;30270;40.238;18.256;2022-07-21T10:13:11;5.25;;;2.83;;
44558;SDS011;30270;40.238;18.256;2022-07-21T10:15:39;4.57;;;2.25;;
44558;SDS011;30270;40.238;18.256;2022-07-21T10:18:07;3.88;;;1.92;;
44558;SDS011;30270;40.238;18.256;2022-07-21T10:20:40;7.35;;;2.55;;
44558;SDS011;30270;40.238;18.256;2022-07-21T10:26:09;3.75;;;2.38;;
44558;SDS011;30270;40.238;18.256;2022-07-21T10:28:39;2.95;;;2.05;;
44558;SDS011;30270;40.238;18.256;2022-07-21T10:31:18;4.10;;;2.60;;
44558;SDS011;30270;40.238;18.256;2022-07-21T10:39:17;5.00;;;2.20;;
44558;SDS011;30270;40.238;18.256;2022-07-21T10:41:47;4.22;;;2.20;;
44558;SDS011;30270;40.238;18.256;2022-07-21T10:57:38;3.53;;;2.10;;
44558;SDS011;30270;40.238;18.256;2022-07-21T11:00:17;3.42;;;1.90;;
44558;SDS011;30270;40.238;18.256;2022-07-21T11:02:58;5.53;;;2.20;;
44558;SDS011;30270;40.238;18.256;2022-07-21T11:05:28;5.60;;;2.42;;
44558;SDS011;30270;40.238;18.256;2022-07-21T11:10:46;3.90;;;2.30;;
44558;SDS011;30270;40.238;18.256;2022-07-21T11:13:17;7.70;;;2.67;;
44558;SDS011;30270;40.238;18.256;2022-07-21T11:15:48;4.65;;;2.10;;
44558;SDS011;30270;40.238;18.256;2022-07-21T11:18:23;6.03;;;2.55;;
44558;SDS011;30270;40.238;18.256;2022-07-21T11:23:44;3.88;;;1.80;;
44558;SDS011;30270;40.238;18.256;2022-07-21T11:26:16;2.40;;;1.55;;
44558;SDS011;30270;40.238;18.256;2022-07-21T11:28:45;4.38;;;1.88;;
44558;SDS011;30270;40.238;18.256;2022-07-21T11:31:15;3.38;;;2.17;;
44558;SDS011;30270;40.238;18.256;2022-07-21T11:33:46;3.47;;;1.90;;
44558;SDS011;30270;40.238;18.256;2022-07-21T11:36:22;3.17;;;2.10;;
44558;SDS011;30270;40.238;18.256;2022-07-21T11:38:56;4.47;;;3.08;;
44558;SDS011;30270;40.238;18.256;2022-07-21T11:41:34;3.58;;;2.55;;
44558;SDS011;30270;40.238;18.256;2022-07-21T11:44:04;6.43;;;2.47;;
44558;SDS011;30270;40.238;18.256;2022-07-21T11:46:49;4.70;;;2.53;;
44558;SDS011;30270;40.238;18.256;2022-07-21T11:49:19;5.88;;;2.25;;
44558;SDS011;30270;40.238;18.256;2022-07-21T11:51:52;3.03;;;2.22;;
44558;SDS011;30270;40.238;18.256;2022-07-21T11:54:25;3.85;;;2.78;;
44558;SDS011;30270;40.238;18.256;2022-07-21T11:57:14;3.58;;;2.25;;
44558;SDS011;30270;40.238;18.256;2022-07-21T11:59:43;3.03;;;1.83;;
44558;SDS011;30270;40.238;18.256;2022-07-21T12:02:16;3.30;;;1.85;;
44558;SDS011;30270;40.238;18.256;2022-07-21T12:04:47;2.83;;;1.52;;
44558;SDS011;30270;40.238;18.256;2022-07-21T12:07:18;3.05;;;1.92;;
44558;SDS011;30270;40.238;18.256;2022-07-21T12:09:53;3.35;;;1.90;;
44558;SDS011;30270;40.238;18.256;2022-07-21T12:15:12;3.33;;;2.15;;
44558;SDS011;30270;40.238;18.256;2022-07-21T12:17:51;2.42;;;1.80;;
44558;SDS011;30270;40.238;18.256;2022-07-21T12:23:22;4.55;;;2.15;;
44558;SDS011;30270;40.238;18.256;2022-07-21T12:25:52;4.10;;;3.03;;
44558;SDS011;30270;40.238;18.256;2022-07-21T12:28:40;4.20;;;2.28;;
44558;SDS011;30270;40.238;18.256;2022-07-21T12:31:11;6.60;;;3.10;;
44558;SDS011;30270;40.238;18.256;2022-07-21T12:33:41;4.68;;;2.70;;
44558;SDS011;30270;40.238;18.256;2022-07-21T12:36:20;5.22;;;2.60;;
44558;SDS011;30270;40.238;18.256;2022-07-21T12:38:49;9.02;;;8.25;;
44558;SDS011;30270;40.238;18.256;2022-07-21T12:41:20;5.45;;;3.67;;
44558;SDS011;30270;40.238;18.256;2022-07-21T12:43:56;3.70;;;3.10;;
44558;SDS011;30270;40.238;18.256;2022-07-21T12:46:30;4.97;;;3.65;;
44558;SDS011;30270;40.238;18.256;2022-07-21T12:49:03;8.00;;;3.70;;
44558;SDS011;30270;40.238;18.256;2022-07-21T12:51:32;7.75;;;6.35;;
44558;SDS011;30270;40.238;18.256;2022-07-21T12:54:00;22.83;;;16.73;;
44558;SDS011;30270;40.238;18.256;2022-07-21T12:56:30;16.77;;;12.55;;
44558;SDS011;30270;40.238;18.256;2022-07-21T12:59:00;33.00;;;25.20;;
44558;SDS011;30270;40.238;18.256;2022-07-21T13:01:30;40.40;;;32.35;;
44558;SDS011;30270;40.238;18.256;2022-07-21T13:03:59;35.67;;;28.95;;
44558;SDS011;30270;40.238;18.256;2022-07-21T13:06:29;9.50;;;6.82;;
44558;SDS011;30270;40.238;18.256;2022-07-21T13:09:06;18.25;;;12.13;;
44558;SDS011;30270;40.238;18.256;2022-07-21T13:11:38;9.00;;;5.70;;
44558;SDS011;30270;40.238;18.256;2022-07-21T13:14:07;8.10;;;5.43;;
44558;SDS011;30270;40.238;18.256;2022-07-21T13:16:37;7.50;;;4.75;;
44558;SDS011;30270;40.238;18.256;2022-07-21T13:19:05;8.68;;;4.78;;
44558;SDS011;30270;40.238;18.256;2022-07-21T13:21:33;5.32;;;4.03;;
44558;SDS011;30270;40.238;18.256;2022-07-21T13:24:01;7.50;;;4.93;;
44558;SDS011;30270;40.238;18.256;2022-07-21T13:26:29;4.82;;;3.85;;
44558;SDS011;30270;40.238;18.256;2022-07-21T13:28:57;7.47;;;4.50;;
44558;SDS011;30270;40.238;18.256;2022-07-21T13:31:24;5.15;;;3.63;;
44558;SDS011;30270;40.238;18.256;2022-07-21T13:33:52;6.00;;;4.60;;
44558;SDS011;30270;40.238;18.256;2022-07-21T13:36:20;7.75;;;5.40;;
44558;SDS011;30270;40.238;18.256;2022-07-21T13:38:48;10.27;;;6.28;;
44558;SDS011;30270;40.238;18.256;2022-07-21T13:41:22;8.60;;;5.53;;
44558;SDS011;30270;40.238;18.256;2022-07-21T13:44:09;9.68;;;7.30;;
44558;SDS011;30270;40.238;18.256;2022-07-21T13:46:37;10.02;;;5.95;;
44558;SDS011;30270;40.238;18.256;2022-07-21T13:49:05;8.55;;;4.95;;
44558;SDS011;30270;40.238;18.256;2022-07-21T13:51:32;7.82;;;5.00;;
44558;SDS011;30270;40.238;18.256;2022-07-21T13:54:00;6.05;;;4.57;;
44558;SDS011;30270;40.238;18.256;2022-07-21T13:56:28;5.28;;;3.42;;
44558;SDS011;30270;40.238;18.256;2022-07-21T13:58:57;5.38;;;4.07;;
44558;SDS011;30270;40.238;18.256;2022-07-21T14:01:24;8.95;;;5.97;;
44558;SDS011;30270;40.238;18.256;2022-07-21T14:03:52;7.18;;;4.88;;
44558;SDS011;30270;40.238;18.256;2022-07-21T14:06:20;12.68;;;3.90;;
44558;SDS011;30270;40.238;18.256;2022-07-21T14:08:48;4.32;;;3.50;;
44558;SDS011;30270;40.238;18.256;2022-07-21T14:11:16;4.97;;;3.25;;
44558;SDS011;30270;40.238;18.256;2022-07-21T14:13:44;5.18;;;3.47;;
44558;SDS011;30270;40.238;18.256;2022-07-21T14:16:11;5.90;;;3.35;;
44558;SDS011;30270;40.238;18.256;2022-07-21T14:18:39;5.65;;;3.42;;
44558;SDS011;30270;40.238;18.256;2022-07-21T14:21:07;4.82;;;3.30;;
44558;SDS011;30270;40.238;18.256;2022-07-21T14:23:35;6.25;;;3.20;;
44558;SDS011;30270;40.238;18.256;2022-07-21T14:26:04;5.05;;;3.20;;
44558;SDS011;30270;40.238;18.256;2022-07-21T14:28:32;5.32;;;3.28;;
44558;SDS011;30270;40.238;18.256;2022-07-21T14:31:00;7.53;;;3.95;;
44558;SDS011;30270;40.238;18.256;2022-07-21T14:33:27;4.18;;;2.85;;
44558;SDS011;30270;40.238;18.256;2022-07-21T14:35:57;5.65;;;3.55;;
44558;SDS011;30270;40.238;18.256;2022-07-21T14:38:25;5.18;;;3.05;;
44558;SDS011;30270;40.238;18.256;2022-07-21T14:40:52;5.97;;;3.47;;
44558;SDS011;30270;40.238;18.256;2022-07-21T14:43:20;4.68;;;3.42;;
44558;SDS011;30270;40.238;18.256;2022-07-21T14:45:48;10.77;;;3.42;;
44558;SDS011;30270;40.238;18.256;2022-07-21T14:48:17;5.88;;;3.40;;
44558;SDS011;30270;40.238;18.256;2022-07-21T14:50:44;6.00;;;3.50;;
44558;SDS011;30270;40.238;18.256;2022-07-21T14:53:13;5.15;;;3.17;;
44558;SDS011;30270;40.238;18.256;2022-07-21T14:55:40;7.95;;;4.63;;
44558;SDS011;30270;40.238;18.256;2022-07-21T14:58:10;5.38;;;2.90;;
44558;SDS011;30270;40.238;18.256;2022-07-21T15:00:38;4.47;;;2.58;;
44558;SDS011;30270;40.238;18.256;2022-07-21T15:03:06;4.00;;;2.60;;
44558;SDS011;30270;40.238;18.256;2022-07-21T15:05:34;3.75;;;2.10;;
44558;SDS011;30270;40.238;18.256;2022-07-21T15:08:02;5.18;;;2.42;;
44558;SDS011;30270;40.238;18.256;2022-07-21T15:10:33;5.25;;;2.22;;
44558;SDS011;30270;40.238;18.256;2022-07-21T15:13:01;3.75;;;2.70;;
44558;SDS011;30270;40.238;18.256;2022-07-21T15:15:29;7.35;;;2.58;;
44558;SDS011;30270;40.238;18.256;2022-07-21T15:17:56;3.47;;;2.40;;
44558;SDS011;30270;40.238;18.256;2022-07-21T15:20:24;4.90;;;2.03;;
44558;SDS011;30270;40.238;18.256;2022-07-21T15:22:51;4.07;;;2.10;;
44558;SDS011;30270;40.238;18.256;2022-07-21T15:25:19;4.60;;;2.35;;
44558;SDS011;30270;40.238;18.256;2022-07-21T15:27:48;6.53;;;2.60;;
44558;SDS011;30270;40.238;18.256;2022-07-21T15:30:16;7.18;;;2.30;;
44558;SDS011;30270;40.238;18.256;2022-07-21T15:32:44;3.45;;;2.08;;
44558;SDS011;30270;40.238;18.256;2022-07-21T15:35:11;5.20;;;1.90;;
44558;SDS011;30270;40.238;18.256;2022-07-21T15:37:40;4.43;;;2.08;;
44558;SDS011;30270;40.238;18.256;2022-07-21T15:40:07;4.28;;;1.73;;
44558;SDS011;30270;40.238;18.256;2022-07-21T15:42:38;4.25;;;1.90;;
44558;SDS011;30270;40.238;18.256;2022-07-21T15:45:08;2.75;;;1.90;;